Terminal Aerodrome Forecast
Issued by NWS Northern Indiana

Home | Current Version | Previous Version | Text Only | Print | Product List | Glossary On
Versions: 1 2 3 4 5 6 7 8 9 10 11 12 13 14 15 16 17
627
FTUS43 KIWX 181729
TAFFWA
TAF
KFWA 181729Z 1818/1918 10010KT P6SM BKN060
     FM182200 09009KT 5SM -RA OVC020
     FM190300 31011KT 4SM -SN BR OVC008
     FM190900 34011KT P6SM OVC015
     FM191400 34012KT P6SM SCT030 BKN200=

USA.gov is the U.S. government's official web portal to all federal, state and local government web resources and services.